sensor_id;sensor_type;location;lat;lon;timestamp;P1;durP1;ratioP1;P2;durP2;ratioP2
52866;SDS011;38739;53.324;6.862;2023-04-25T00:00:52;26.75;;;4.68;;
52866;SDS011;38739;53.324;6.862;2023-04-25T00:03:18;24.27;;;4.90;;
52866;SDS011;38739;53.324;6.862;2023-04-25T00:05:44;26.52;;;4.40;;
52866;SDS011;38739;53.324;6.862;2023-04-25T00:08:10;27.52;;;4.90;;
52866;SDS011;38739;53.324;6.862;2023-04-25T00:10:36;27.55;;;4.57;;
52866;SDS011;38739;53.324;6.862;2023-04-25T00:13:02;21.83;;;4.57;;
52866;SDS011;38739;53.324;6.862;2023-04-25T00:15:28;25.23;;;4.60;;
52866;SDS011;38739;53.324;6.862;2023-04-25T00:17:57;27.13;;;4.85;;
52866;SDS011;38739;53.324;6.862;2023-04-25T00:20:22;22.33;;;4.18;;
52866;SDS011;38739;53.324;6.862;2023-04-25T00:22:49;25.25;;;3.88;;
52866;SDS011;38739;53.324;6.862;2023-04-25T00:25:15;26.98;;;4.25;;
52866;SDS011;38739;53.324;6.862;2023-04-25T00:27:41;23.13;;;4.07;;
52866;SDS011;38739;53.324;6.862;2023-04-25T00:30:07;23.90;;;3.63;;
52866;SDS011;38739;53.324;6.862;2023-04-25T00:32:33;21.58;;;3.70;;
52866;SDS011;38739;53.324;6.862;2023-04-25T00:34:59;15.68;;;3.53;;
52866;SDS011;38739;53.324;6.862;2023-04-25T00:37:24;21.02;;;3.97;;
52866;SDS011;38739;53.324;6.862;2023-04-25T00:39:50;14.90;;;3.50;;
52866;SDS011;38739;53.324;6.862;2023-04-25T00:42:18;25.05;;;3.65;;
52866;SDS011;38739;53.324;6.862;2023-04-25T00:44:44;13.43;;;3.00;;
52866;SDS011;38739;53.324;6.862;2023-04-25T00:47:10;17.75;;;3.00;;
52866;SDS011;38739;53.324;6.862;2023-04-25T00:49:36;21.92;;;3.50;;
52866;SDS011;38739;53.324;6.862;2023-04-25T00:52:02;16.60;;;2.90;;
52866;SDS011;38739;53.324;6.862;2023-04-25T00:54:27;18.90;;;3.25;;
52866;SDS011;38739;53.324;6.862;2023-04-25T00:56:55;20.70;;;2.83;;
52866;SDS011;38739;53.324;6.862;2023-04-25T00:59:20;21.40;;;3.20;;
52866;SDS011;38739;53.324;6.862;2023-04-25T01:01:46;20.77;;;3.15;;
52866;SDS011;38739;53.324;6.862;2023-04-25T01:04:12;16.73;;;3.05;;
52866;SDS011;38739;53.324;6.862;2023-04-25T01:06:38;18.63;;;3.10;;
52866;SDS011;38739;53.324;6.862;2023-04-25T01:09:04;17.83;;;3.00;;
52866;SDS011;38739;53.324;6.862;2023-04-25T01:11:30;20.55;;;3.60;;
52866;SDS011;38739;53.324;6.862;2023-04-25T01:13:56;18.83;;;3.20;;
52866;SDS011;38739;53.324;6.862;2023-04-25T01:16:22;19.52;;;2.97;;
52866;SDS011;38739;53.324;6.862;2023-04-25T01:18:49;17.75;;;2.88;;
52866;SDS011;38739;53.324;6.862;2023-04-25T01:21:16;14.43;;;3.03;;
52866;SDS011;38739;53.324;6.862;2023-04-25T01:23:42;15.88;;;3.03;;
52866;SDS011;38739;53.324;6.862;2023-04-25T01:26:08;21.92;;;3.15;;
52866;SDS011;38739;53.324;6.862;2023-04-25T01:28:36;22.48;;;3.50;;
52866;SDS011;38739;53.324;6.862;2023-04-25T01:31:02;19.60;;;3.30;;
52866;SDS011;38739;53.324;6.862;2023-04-25T01:33:28;16.33;;;2.90;;
52866;SDS011;38739;53.324;6.862;2023-04-25T01:35:54;13.82;;;3.30;;
52866;SDS011;38739;53.324;6.862;2023-04-25T01:38:20;19.00;;;3.15;;
52866;SDS011;38739;53.324;6.862;2023-04-25T01:40:47;17.35;;;3.33;;
52866;SDS011;38739;53.324;6.862;2023-04-25T01:43:15;17.63;;;2.92;;
52866;SDS011;38739;53.324;6.862;2023-04-25T01:45:41;13.93;;;2.78;;
52866;SDS011;38739;53.324;6.862;2023-04-25T01:48:08;18.77;;;3.00;;
52866;SDS011;38739;53.324;6.862;2023-04-25T01:50:34;16.98;;;3.30;;
52866;SDS011;38739;53.324;6.862;2023-04-25T01:53:00;20.52;;;3.75;;
52866;SDS011;38739;53.324;6.862;2023-04-25T01:55:27;15.77;;;2.72;;
52866;SDS011;38739;53.324;6.862;2023-04-25T01:57:53;16.00;;;2.53;;
52866;SDS011;38739;53.324;6.862;2023-04-25T02:00:18;12.00;;;2.60;;
52866;SDS011;38739;53.324;6.862;2023-04-25T02:02:44;9.45;;;2.20;;
52866;SDS011;38739;53.324;6.862;2023-04-25T02:05:10;16.08;;;2.90;;
52866;SDS011;38739;53.324;6.862;2023-04-25T02:07:36;19.05;;;2.85;;
52866;SDS011;38739;53.324;6.862;2023-04-25T02:10:03;12.20;;;2.22;;
52866;SDS011;38739;53.324;6.862;2023-04-25T02:12:29;14.93;;;2.60;;
52866;SDS011;38739;53.324;6.862;2023-04-25T02:14:55;15.52;;;2.53;;
52866;SDS011;38739;53.324;6.862;2023-04-25T02:17:21;15.95;;;3.05;;
52866;SDS011;38739;53.324;6.862;2023-04-25T02:19:47;22.77;;;3.00;;
52866;SDS011;38739;53.324;6.862;2023-04-25T02:22:13;15.52;;;2.58;;
52866;SDS011;38739;53.324;6.862;2023-04-25T02:24:39;19.60;;;3.22;;
52866;SDS011;38739;53.324;6.862;2023-04-25T02:27:05;15.43;;;2.50;;
52866;SDS011;38739;53.324;6.862;2023-04-25T02:29:31;13.63;;;2.42;;
52866;SDS011;38739;53.324;6.862;2023-04-25T02:31:56;12.52;;;2.83;;
52866;SDS011;38739;53.324;6.862;2023-04-25T02:34:22;15.57;;;2.90;;
52866;SDS011;38739;53.324;6.862;2023-04-25T02:36:48;12.85;;;2.70;;
52866;SDS011;38739;53.324;6.862;2023-04-25T02:39:16;13.95;;;2.80;;
52866;SDS011;38739;53.324;6.862;2023-04-25T02:41:41;14.43;;;3.10;;
52866;SDS011;38739;53.324;6.862;2023-04-25T02:44:07;13.32;;;2.60;;
52866;SDS011;38739;53.324;6.862;2023-04-25T02:46:33;10.15;;;2.08;;
52866;SDS011;38739;53.324;6.862;2023-04-25T02:48:58;11.35;;;1.92;;
52866;SDS011;38739;53.324;6.862;2023-04-25T02:51:24;8.10;;;1.90;;
52866;SDS011;38739;53.324;6.862;2023-04-25T02:53:51;9.23;;;2.15;;
52866;SDS011;38739;53.324;6.862;2023-04-25T02:56:17;8.88;;;2.72;;
52866;SDS011;38739;53.324;6.862;2023-04-25T02:58:42;11.32;;;2.15;;
52866;SDS011;38739;53.324;6.862;2023-04-25T03:01:08;11.73;;;2.47;;
52866;SDS011;38739;53.324;6.862;2023-04-25T03:03:34;8.85;;;2.20;;
52866;SDS011;38739;53.324;6.862;2023-04-25T03:06:00;18.45;;;3.38;;
52866;SDS011;38739;53.324;6.862;2023-04-25T03:08:25;20.58;;;2.85;;
52866;SDS011;38739;53.324;6.862;2023-04-25T03:10:54;14.52;;;2.58;;
52866;SDS011;38739;53.324;6.862;2023-04-25T03:13:20;10.25;;;2.03;;
52866;SDS011;38739;53.324;6.862;2023-04-25T03:15:46;7.55;;;1.67;;
52866;SDS011;38739;53.324;6.862;2023-04-25T03:18:11;8.02;;;1.70;;
52866;SDS011;38739;53.324;6.862;2023-04-25T03:20:37;10.88;;;2.20;;
52866;SDS011;38739;53.324;6.862;2023-04-25T03:23:04;16.63;;;1.98;;
52866;SDS011;38739;53.324;6.862;2023-04-25T03:25:30;10.38;;;1.77;;
52866;SDS011;38739;53.324;6.862;2023-04-25T03:27:56;7.78;;;1.75;;
52866;SDS011;38739;53.324;6.862;2023-04-25T03:30:22;8.90;;;2.00;;
52866;SDS011;38739;53.324;6.862;2023-04-25T03:32:47;11.50;;;2.13;;
52866;SDS011;38739;53.324;6.862;2023-04-25T03:35:13;13.45;;;2.30;;
52866;SDS011;38739;53.324;6.862;2023-04-25T03:37:39;10.65;;;2.30;;
52866;SDS011;38739;53.324;6.862;2023-04-25T03:40:05;15.25;;;2.75;;
52866;SDS011;38739;53.324;6.862;2023-04-25T03:42:31;15.13;;;2.58;;
52866;SDS011;38739;53.324;6.862;2023-04-25T03:44:57;18.10;;;2.53;;
52866;SDS011;38739;53.324;6.862;2023-04-25T03:47:23;13.95;;;2.80;;
52866;SDS011;38739;53.324;6.862;2023-04-25T03:49:48;16.90;;;2.63;;
52866;SDS011;38739;53.324;6.862;2023-04-25T03:52:16;12.43;;;2.72;;
52866;SDS011;38739;53.324;6.862;2023-04-25T03:54:42;17.85;;;2.92;;
52866;SDS011;38739;53.324;6.862;2023-04-25T03:57:08;14.07;;;2.60;;
52866;SDS011;38739;53.324;6.862;2023-04-25T03:59:34;13.75;;;2.72;;
52866;SDS011;38739;53.324;6.862;2023-04-25T04:02:00;13.88;;;2.90;;
52866;SDS011;38739;53.324;6.862;2023-04-25T04:04:25;16.75;;;2.63;;
52866;SDS011;38739;53.324;6.862;2023-04-25T04:06:51;15.85;;;2.45;;
52866;SDS011;38739;53.324;6.862;2023-04-25T04:09:17;13.05;;;2.47;;
52866;SDS011;38739;53.324;6.862;2023-04-25T04:11:44;14.00;;;2.58;;
52866;SDS011;38739;53.324;6.862;2023-04-25T04:14:10;12.98;;;2.40;;
52866;SDS011;38739;53.324;6.862;2023-04-25T04:16:35;12.55;;;2.47;;
52866;SDS011;38739;53.324;6.862;2023-04-25T04:19:01;10.52;;;2.15;;
52866;SDS011;38739;53.324;6.862;2023-04-25T04:21:27;11.95;;;2.38;;
52866;SDS011;38739;53.324;6.862;2023-04-25T04:23:53;12.02;;;2.33;;
52866;SDS011;38739;53.324;6.862;2023-04-25T04:26:19;12.55;;;2.30;;
52866;SDS011;38739;53.324;6.862;2023-04-25T04:28:48;15.10;;;2.20;;
52866;SDS011;38739;53.324;6.862;2023-04-25T04:31:19;14.35;;;2.20;;
52866;SDS011;38739;53.324;6.862;2023-04-25T04:33:46;14.75;;;2.38;;
52866;SDS011;38739;53.324;6.862;2023-04-25T04:36:12;12.07;;;2.10;;
52866;SDS011;38739;53.324;6.862;2023-04-25T04:38:38;10.45;;;1.67;;
52866;SDS011;38739;53.324;6.862;2023-04-25T04:41:05;10.73;;;2.15;;
52866;SDS011;38739;53.324;6.862;2023-04-25T04:43:31;9.57;;;1.73;;
52866;SDS011;38739;53.324;6.862;2023-04-25T04:45:58;10.38;;;1.85;;
52866;SDS011;38739;53.324;6.862;2023-04-25T04:48:25;12.10;;;2.17;;
52866;SDS011;38739;53.324;6.862;2023-04-25T04:50:51;8.77;;;1.85;;
52866;SDS011;38739;53.324;6.862;2023-04-25T04:53:17;7.82;;;1.60;;
52866;SDS011;38739;53.324;6.862;2023-04-25T04:55:43;12.23;;;2.17;;
52866;SDS011;38739;53.324;6.862;2023-04-25T04:58:09;12.52;;;2.50;;
52866;SDS011;38739;53.324;6.862;2023-04-25T05:00:34;11.82;;;2.20;;
52866;SDS011;38739;53.324;6.862;2023-04-25T05:03:00;7.32;;;1.83;;
52866;SDS011;38739;53.324;6.862;2023-04-25T05:05:26;8.82;;;1.88;;
52866;SDS011;38739;53.324;6.862;2023-04-25T05:07:52;7.20;;;1.67;;
52866;SDS011;38739;53.324;6.862;2023-04-25T05:10:18;8.77;;;2.00;;
52866;SDS011;38739;53.324;6.862;2023-04-25T05:12:44;12.05;;;1.83;;
52866;SDS011;38739;53.324;6.862;2023-04-25T05:15:10;8.63;;;1.80;;
52866;SDS011;38739;53.324;6.862;2023-04-25T05:17:36;12.07;;;2.00;;
52866;SDS011;38739;53.324;6.862;2023-04-25T05:20:02;13.48;;;1.88;;
52866;SDS011;38739;53.324;6.862;2023-04-25T05:22:30;13.15;;;1.85;;
52866;SDS011;38739;53.324;6.862;2023-04-25T05:24:56;9.20;;;1.77;;
52866;SDS011;38739;53.324;6.862;2023-04-25T05:27:22;9.35;;;1.95;;
52866;SDS011;38739;53.324;6.862;2023-04-25T05:29:48;10.85;;;1.83;;
52866;SDS011;38739;53.324;6.862;2023-04-25T05:32:13;9.43;;;2.05;;
52866;SDS011;38739;53.324;6.862;2023-04-25T05:34:39;11.68;;;2.25;;
52866;SDS011;38739;53.324;6.862;2023-04-25T05:37:05;11.32;;;1.95;;
52866;SDS011;38739;53.324;6.862;2023-04-25T05:39:31;12.07;;;2.25;;
52866;SDS011;38739;53.324;6.862;2023-04-25T05:41:57;14.77;;;2.22;;
52866;SDS011;38739;53.324;6.862;2023-04-25T05:44:22;11.77;;;1.85;;
52866;SDS011;38739;53.324;6.862;2023-04-25T05:46:48;13.48;;;2.10;;
52866;SDS011;38739;53.324;6.862;2023-04-25T05:49:14;9.75;;;1.70;;
52866;SDS011;38739;53.324;6.862;2023-04-25T05:51:40;16.70;;;2.38;;
52866;SDS011;38739;53.324;6.862;2023-04-25T05:54:05;14.30;;;2.38;;
52866;SDS011;38739;53.324;6.862;2023-04-25T05:56:31;14.30;;;2.33;;
52866;SDS011;38739;53.324;6.862;2023-04-25T05:58:57;12.82;;;2.17;;
52866;SDS011;38739;53.324;6.862;2023-04-25T06:01:22;15.05;;;2.20;;
52866;SDS011;38739;53.324;6.862;2023-04-25T06:03:48;11.32;;;2.08;;
52866;SDS011;38739;53.324;6.862;2023-04-25T06:06:14;13.48;;;2.38;;
52866;SDS011;38739;53.324;6.862;2023-04-25T06:08:40;15.25;;;2.22;;
52866;SDS011;38739;53.324;6.862;2023-04-25T06:11:06;7.45;;;1.80;;
52866;SDS011;38739;53.324;6.862;2023-04-25T06:13:31;9.00;;;1.55;;
52866;SDS011;38739;53.324;6.862;2023-04-25T06:15:57;7.78;;;1.65;;
52866;SDS011;38739;53.324;6.862;2023-04-25T06:18:23;11.77;;;1.80;;
52866;SDS011;38739;53.324;6.862;2023-04-25T06:20:49;8.02;;;1.85;;
52866;SDS011;38739;53.324;6.862;2023-04-25T06:23:14;12.10;;;1.60;;
52866;SDS011;38739;53.324;6.862;2023-04-25T06:25:40;8.25;;;1.88;;
52866;SDS011;38739;53.324;6.862;2023-04-25T06:28:06;13.27;;;2.33;;
52866;SDS011;38739;53.324;6.862;2023-04-25T06:30:31;11.30;;;1.95;;
52866;SDS011;38739;53.324;6.862;2023-04-25T06:32:57;11.77;;;2.00;;
52866;SDS011;38739;53.324;6.862;2023-04-25T06:35:23;11.80;;;2.08;;
52866;SDS011;38739;53.324;6.862;2023-04-25T06:37:48;12.32;;;1.85;;
52866;SDS011;38739;53.324;6.862;2023-04-25T06:40:14;10.98;;;2.10;;
52866;SDS011;38739;53.324;6.862;2023-04-25T06:42:40;16.60;;;2.05;;
52866;SDS011;38739;53.324;6.862;2023-04-25T06:45:06;11.52;;;1.90;;
52866;SDS011;38739;53.324;6.862;2023-04-25T06:47:32;8.68;;;1.58;;
52866;SDS011;38739;53.324;6.862;2023-04-25T06:49:58;14.35;;;1.90;;
52866;SDS011;38739;53.324;6.862;2023-04-25T06:52:23;11.18;;;2.03;;
52866;SDS011;38739;53.324;6.862;2023-04-25T06:54:49;14.80;;;1.55;;
52866;SDS011;38739;53.324;6.862;2023-04-25T06:57:14;11.90;;;1.88;;
52866;SDS011;38739;53.324;6.862;2023-04-25T06:59:40;12.60;;;2.13;;
52866;SDS011;38739;53.324;6.862;2023-04-25T07:02:06;9.65;;;2.30;;
52866;SDS011;38739;53.324;6.862;2023-04-25T07:04:31;7.68;;;1.50;;
52866;SDS011;38739;53.324;6.862;2023-04-25T07:06:57;13.68;;;1.80;;
52866;SDS011;38739;53.324;6.862;2023-04-25T07:09:23;6.30;;;1.40;;
52866;SDS011;38739;53.324;6.862;2023-04-25T07:11:49;3.65;;;1.00;;
52866;SDS011;38739;53.324;6.862;2023-04-25T07:14:14;8.50;;;0.98;;
52866;SDS011;38739;53.324;6.862;2023-04-25T07:16:40;6.50;;;1.10;;
52866;SDS011;38739;53.324;6.862;2023-04-25T07:19:06;8.50;;;1.05;;
52866;SDS011;38739;53.324;6.862;2023-04-25T07:21:32;8.02;;;1.20;;
52866;SDS011;38739;53.324;6.862;2023-04-25T07:23:58;9.60;;;1.40;;
52866;SDS011;38739;53.324;6.862;2023-04-25T07:26:23;8.60;;;1.13;;
52866;SDS011;38739;53.324;6.862;2023-04-25T07:28:49;7.07;;;1.65;;
52866;SDS011;38739;53.324;6.862;2023-04-25T07:31:16;11.95;;;1.50;;
52866;SDS011;38739;53.324;6.862;2023-04-25T07:33:43;13.02;;;1.73;;
52866;SDS011;38739;53.324;6.862;2023-04-25T07:36:10;11.57;;;1.45;;
52866;SDS011;38739;53.324;6.862;2023-04-25T07:38:37;9.20;;;1.67;;
52866;SDS011;38739;53.324;6.862;2023-04-25T07:41:03;11.60;;;1.65;;
52866;SDS011;38739;53.324;6.862;2023-04-25T07:43:29;11.68;;;1.92;;
52866;SDS011;38739;53.324;6.862;2023-04-25T07:45:55;11.93;;;2.10;;
52866;SDS011;38739;53.324;6.862;2023-04-25T07:48:22;11.93;;;1.83;;
52866;SDS011;38739;53.324;6.862;2023-04-25T07:50:47;10.10;;;1.55;;
52866;SDS011;38739;53.324;6.862;2023-04-25T07:53:13;6.45;;;1.40;;
52866;SDS011;38739;53.324;6.862;2023-04-25T07:55:39;8.13;;;1.33;;
52866;SDS011;38739;53.324;6.862;2023-04-25T07:58:05;9.60;;;1.90;;
52866;SDS011;38739;53.324;6.862;2023-04-25T08:00:35;12.32;;;1.60;;
52866;SDS011;38739;53.324;6.862;2023-04-25T08:03:01;8.43;;;1.50;;
52866;SDS011;38739;53.324;6.862;2023-04-25T08:05:27;10.32;;;1.75;;
52866;SDS011;38739;53.324;6.862;2023-04-25T08:07:53;13.15;;;2.20;;
52866;SDS011;38739;53.324;6.862;2023-04-25T08:10:19;7.15;;;1.50;;
52866;SDS011;38739;53.324;6.862;2023-04-25T08:12:45;10.05;;;1.80;;
52866;SDS011;38739;53.324;6.862;2023-04-25T08:15:11;13.00;;;1.75;;
52866;SDS011;38739;53.324;6.862;2023-04-25T08:17:38;11.07;;;1.58;;
52866;SDS011;38739;53.324;6.862;2023-04-25T08:20:04;9.57;;;1.80;;
52866;SDS011;38739;53.324;6.862;2023-04-25T08:22:31;12.57;;;1.70;;
52866;SDS011;38739;53.324;6.862;2023-04-25T08:24:57;11.55;;;1.52;;
52866;SDS011;38739;53.324;6.862;2023-04-25T08:27:22;11.98;;;1.42;;
52866;SDS011;38739;53.324;6.862;2023-04-25T08:29:48;9.75;;;1.40;;
52866;SDS011;38739;53.324;6.862;2023-04-25T08:32:15;6.20;;;1.20;;
52866;SDS011;38739;53.324;6.862;2023-04-25T08:34:41;13.60;;;2.03;;
52866;SDS011;38739;53.324;6.862;2023-04-25T08:37:08;8.73;;;1.70;;
52866;SDS011;38739;53.324;6.862;2023-04-25T08:39:35;10.48;;;1.45;;
52866;SDS011;38739;53.324;6.862;2023-04-25T08:42:02;14.18;;;1.73;;
52866;SDS011;38739;53.324;6.862;2023-04-25T08:44:33;8.38;;;1.40;;
52866;SDS011;38739;53.324;6.862;2023-04-25T08:47:01;10.25;;;1.55;;
52866;SDS011;38739;53.324;6.862;2023-04-25T08:49:31;8.63;;;1.38;;
52866;SDS011;38739;53.324;6.862;2023-04-25T08:52:02;11.00;;;1.60;;
52866;SDS011;38739;53.324;6.862;2023-04-25T08:54:32;9.52;;;2.10;;
52866;SDS011;38739;53.324;6.862;2023-04-25T08:57:00;12.48;;;2.17;;
52866;SDS011;38739;53.324;6.862;2023-04-25T08:59:28;7.20;;;1.40;;
52866;SDS011;38739;53.324;6.862;2023-04-25T09:01:54;11.30;;;1.65;;
52866;SDS011;38739;53.324;6.862;2023-04-25T09:04:20;9.20;;;1.75;;
52866;SDS011;38739;53.324;6.862;2023-04-25T09:06:46;10.30;;;1.90;;
52866;SDS011;38739;53.324;6.862;2023-04-25T09:09:12;7.10;;;1.73;;
52866;SDS011;38739;53.324;6.862;2023-04-25T09:11:38;10.60;;;1.67;;
52866;SDS011;38739;53.324;6.862;2023-04-25T09:14:15;12.18;;;1.88;;
52866;SDS011;38739;53.324;6.862;2023-04-25T09:19:21;7.55;;;1.60;;
52866;SDS011;38739;53.324;6.862;2023-04-25T09:21:48;9.02;;;1.50;;
52866;SDS011;38739;53.324;6.862;2023-04-25T09:24:14;8.48;;;1.42;;
52866;SDS011;38739;53.324;6.862;2023-04-25T09:26:40;8.35;;;1.45;;
52866;SDS011;38739;53.324;6.862;2023-04-25T09:29:06;15.20;;;1.95;;
52866;SDS011;38739;53.324;6.862;2023-04-25T09:31:33;11.23;;;1.77;;
52866;SDS011;38739;53.324;6.862;2023-04-25T09:34:02;5.22;;;1.10;;
52866;SDS011;38739;53.324;6.862;2023-04-25T09:36:29;8.68;;;1.17;;
52866;SDS011;38739;53.324;6.862;2023-04-25T09:38:55;4.78;;;0.90;;
52866;SDS011;38739;53.324;6.862;2023-04-25T09:41:24;4.60;;;1.00;;
52866;SDS011;38739;53.324;6.862;2023-04-25T09:43:50;5.28;;;1.30;;
52866;SDS011;38739;53.324;6.862;2023-04-25T09:46:16;8.20;;;1.65;;
52866;SDS011;38739;53.324;6.862;2023-04-25T09:48:50;7.70;;;1.38;;
52866;SDS011;38739;53.324;6.862;2023-04-25T09:53:42;7.47;;;1.40;;
52866;SDS011;38739;53.324;6.862;2023-04-25T09:56:10;5.85;;;1.23;;
52866;SDS011;38739;53.324;6.862;2023-04-25T09:58:37;6.15;;;1.20;;
52866;SDS011;38739;53.324;6.862;2023-04-25T10:01:08;6.13;;;1.33;;
52866;SDS011;38739;53.324;6.862;2023-04-25T10:03:35;7.80;;;1.33;;
52866;SDS011;38739;53.324;6.862;2023-04-25T10:06:07;9.18;;;1.80;;
52866;SDS011;38739;53.324;6.862;2023-04-25T10:08:35;9.32;;;1.70;;
52866;SDS011;38739;53.324;6.862;2023-04-25T10:11:03;10.07;;;1.90;;
52866;SDS011;38739;53.324;6.862;2023-04-25T10:13:31;12.18;;;1.45;;
52866;SDS011;38739;53.324;6.862;2023-04-25T10:15:58;6.15;;;1.58;;
52866;SDS011;38739;53.324;6.862;2023-04-25T10:18:25;10.20;;;1.52;;
52866;SDS011;38739;53.324;6.862;2023-04-25T10:20:56;15.32;;;2.10;;
52866;SDS011;38739;53.324;6.862;2023-04-25T10:23:25;6.60;;;1.48;;
52866;SDS011;38739;53.324;6.862;2023-04-25T10:25:52;6.45;;;1.55;;
52866;SDS011;38739;53.324;6.862;2023-04-25T10:28:19;7.75;;;1.60;;
52866;SDS011;38739;53.324;6.862;2023-04-25T10:30:56;5.22;;;1.25;;
52866;SDS011;38739;53.324;6.862;2023-04-25T10:33:29;8.05;;;1.40;;
52866;SDS011;38739;53.324;6.862;2023-04-25T10:35:58;8.80;;;1.35;;
52866;SDS011;38739;53.324;6.862;2023-04-25T10:38:24;8.95;;;1.60;;
52866;SDS011;38739;53.324;6.862;2023-04-25T10:43:48;7.32;;;1.60;;
52866;SDS011;38739;53.324;6.862;2023-04-25T10:46:22;8.63;;;1.33;;
52866;SDS011;38739;53.324;6.862;2023-04-25T10:56:48;9.75;;;1.65;;
52866;SDS011;38739;53.324;6.862;2023-04-25T10:59:17;7.50;;;1.40;;
52866;SDS011;38739;53.324;6.862;2023-04-25T11:01:48;4.25;;;1.50;;
52866;SDS011;38739;53.324;6.862;2023-04-25T11:04:30;6.18;;;1.52;;
52866;SDS011;38739;53.324;6.862;2023-04-25T11:11:58;6.25;;;1.42;;
52866;SDS011;38739;53.324;6.862;2023-04-25T11:14:25;6.40;;;1.73;;
52866;SDS011;38739;53.324;6.862;2023-04-25T11:16:55;11.27;;;1.58;;
52866;SDS011;38739;53.324;6.862;2023-04-25T11:19:22;9.88;;;1.45;;
52866;SDS011;38739;53.324;6.862;2023-04-25T11:21:49;6.90;;;1.50;;
52866;SDS011;38739;53.324;6.862;2023-04-25T11:24:18;6.30;;;1.30;;
52866;SDS011;38739;53.324;6.862;2023-04-25T11:26:46;9.30;;;1.67;;
52866;SDS011;38739;53.324;6.862;2023-04-25T11:29:13;6.43;;;1.45;;
52866;SDS011;38739;53.324;6.862;2023-04-25T11:31:42;7.20;;;1.17;;
52866;SDS011;38739;53.324;6.862;2023-04-25T11:34:10;5.57;;;1.52;;
52866;SDS011;38739;53.324;6.862;2023-04-25T11:36:36;10.50;;;1.63;;
52866;SDS011;38739;53.324;6.862;2023-04-25T11:39:03;7.70;;;1.40;;
52866;SDS011;38739;53.324;6.862;2023-04-25T11:41:31;7.93;;;1.50;;
52866;SDS011;38739;53.324;6.862;2023-04-25T11:43:56;5.90;;;1.30;;
52866;SDS011;38739;53.324;6.862;2023-04-25T11:46:22;6.60;;;1.40;;
52866;SDS011;38739;53.324;6.862;2023-04-25T11:48:48;9.80;;;1.55;;
52866;SDS011;38739;53.324;6.862;2023-04-25T11:51:15;7.10;;;1.65;;
52866;SDS011;38739;53.324;6.862;2023-04-25T11:53:42;10.20;;;1.83;;
52866;SDS011;38739;53.324;6.862;2023-04-25T11:56:10;9.07;;;1.80;;
52866;SDS011;38739;53.324;6.862;2023-04-25T12:03:55;8.90;;;1.52;;
52866;SDS011;38739;53.324;6.862;2023-04-25T12:06:36;9.38;;;1.45;;
52866;SDS011;38739;53.324;6.862;2023-04-25T12:09:12;11.25;;;1.70;;
52866;SDS011;38739;53.324;6.862;2023-04-25T12:11:45;12.13;;;1.63;;
52866;SDS011;38739;53.324;6.862;2023-04-25T12:14:22;8.52;;;1.63;;
52866;SDS011;38739;53.324;6.862;2023-04-25T12:16:53;7.00;;;1.48;;
52866;SDS011;38739;53.324;6.862;2023-04-25T12:19:21;7.93;;;1.92;;
52866;SDS011;38739;53.324;6.862;2023-04-25T12:21:47;11.48;;;2.08;;
52866;SDS011;38739;53.324;6.862;2023-04-25T12:24:15;11.55;;;1.45;;
52866;SDS011;38739;53.324;6.862;2023-04-25T12:27:02;8.32;;;1.95;;
52866;SDS011;38739;53.324;6.862;2023-04-25T12:29:30;8.02;;;1.65;;
52866;SDS011;38739;53.324;6.862;2023-04-25T12:31:57;9.32;;;1.95;;
52866;SDS011;38739;53.324;6.862;2023-04-25T12:34:23;7.93;;;1.50;;
52866;SDS011;38739;53.324;6.862;2023-04-25T12:36:52;8.05;;;1.50;;
52866;SDS011;38739;53.324;6.862;2023-04-25T12:39:19;6.95;;;1.10;;
52866;SDS011;38739;53.324;6.862;2023-04-25T12:41:46;5.72;;;1.25;;
52866;SDS011;38739;53.324;6.862;2023-04-25T12:44:13;8.80;;;1.52;;
52866;SDS011;38739;53.324;6.862;2023-04-25T12:46:39;6.88;;;1.30;;
52866;SDS011;38739;53.324;6.862;2023-04-25T12:49:06;7.47;;;1.70;;
52866;SDS011;38739;53.324;6.862;2023-04-25T12:51:35;6.03;;;1.17;;
52866;SDS011;38739;53.324;6.862;2023-04-25T12:54:02;6.80;;;1.30;;
52866;SDS011;38739;53.324;6.862;2023-04-25T12:56:29;7.53;;;1.45;;
52866;SDS011;38739;53.324;6.862;2023-04-25T12:58:56;8.65;;;1.52;;
52866;SDS011;38739;53.324;6.862;2023-04-25T13:01:22;6.05;;;1.27;;
52866;SDS011;38739;53.324;6.862;2023-04-25T13:03:48;6.65;;;1.33;;
52866;SDS011;38739;53.324;6.862;2023-04-25T13:06:17;3.50;;;0.90;;
52866;SDS011;38739;53.324;6.862;2023-04-25T13:08:44;5.38;;;1.10;;
52866;SDS011;38739;53.324;6.862;2023-04-25T13:11:10;9.65;;;1.55;;
52866;SDS011;38739;53.324;6.862;2023-04-25T13:13:36;5.93;;;1.20;;
52866;SDS011;38739;53.324;6.862;2023-04-25T13:16:03;5.97;;;1.30;;
52866;SDS011;38739;53.324;6.862;2023-04-25T13:18:30;8.93;;;1.50;;
52866;SDS011;38739;53.324;6.862;2023-04-25T13:20:56;7.47;;;1.58;;
52866;SDS011;38739;53.324;6.862;2023-04-25T13:23:22;6.63;;;1.30;;
52866;SDS011;38739;53.324;6.862;2023-04-25T13:25:51;6.88;;;1.15;;
52866;SDS011;38739;53.324;6.862;2023-04-25T13:28:18;6.60;;;1.83;;
52866;SDS011;38739;53.324;6.862;2023-04-25T13:30:43;3.95;;;1.20;;
52866;SDS011;38739;53.324;6.862;2023-04-25T13:33:10;5.10;;;0.93;;
52866;SDS011;38739;53.324;6.862;2023-04-25T13:35:36;6.80;;;1.15;;
52866;SDS011;38739;53.324;6.862;2023-04-25T13:38:02;5.53;;;1.60;;
52866;SDS011;38739;53.324;6.862;2023-04-25T13:40:28;5.93;;;1.38;;
52866;SDS011;38739;53.324;6.862;2023-04-25T13:42:54;8.18;;;1.10;;
52866;SDS011;38739;53.324;6.862;2023-04-25T13:45:21;6.85;;;1.35;;
52866;SDS011;38739;53.324;6.862;2023-04-25T13:47:46;6.05;;;1.40;;
52866;SDS011;38739;53.324;6.862;2023-04-25T13:50:12;12.02;;;1.88;;
52866;SDS011;38739;53.324;6.862;2023-04-25T13:52:39;6.97;;;1.35;;
52866;SDS011;38739;53.324;6.862;2023-04-25T13:55:05;8.98;;;1.88;;
52866;SDS011;38739;53.324;6.862;2023-04-25T13:57:32;7.15;;;1.83;;
52866;SDS011;38739;53.324;6.862;2023-04-25T13:59:58;6.57;;;1.60;;
52866;SDS011;38739;53.324;6.862;2023-04-25T14:02:29;5.57;;;1.27;;
52866;SDS011;38739;53.324;6.862;2023-04-25T14:04:55;11.73;;;1.00;;
52866;SDS011;38739;53.324;6.862;2023-04-25T14:07:21;5.25;;;1.30;;
52866;SDS011;38739;53.324;6.862;2023-04-25T14:09:47;3.85;;;0.90;;
52866;SDS011;38739;53.324;6.862;2023-04-25T14:12:12;10.13;;;1.77;;
52866;SDS011;38739;53.324;6.862;2023-04-25T14:14:38;6.53;;;1.85;;
52866;SDS011;38739;53.324;6.862;2023-04-25T14:17:04;6.60;;;1.60;;
52866;SDS011;38739;53.324;6.862;2023-04-25T14:19:30;7.80;;;1.25;;
52866;SDS011;38739;53.324;6.862;2023-04-25T14:21:55;7.18;;;1.60;;
52866;SDS011;38739;53.324;6.862;2023-04-25T14:24:21;8.98;;;1.60;;
52866;SDS011;38739;53.324;6.862;2023-04-25T14:26:47;8.60;;;1.58;;
52866;SDS011;38739;53.324;6.862;2023-04-25T14:29:12;5.88;;;0.90;;
52866;SDS011;38739;53.324;6.862;2023-04-25T14:31:38;8.02;;;1.42;;
52866;SDS011;38739;53.324;6.862;2023-04-25T14:34:05;7.10;;;1.27;;
52866;SDS011;38739;53.324;6.862;2023-04-25T14:36:31;5.25;;;1.55;;
52866;SDS011;38739;53.324;6.862;2023-04-25T14:38:58;4.32;;;1.10;;
52866;SDS011;38739;53.324;6.862;2023-04-25T14:41:24;5.60;;;1.08;;
52866;SDS011;38739;53.324;6.862;2023-04-25T14:43:51;5.70;;;1.40;;
52866;SDS011;38739;53.324;6.862;2023-04-25T14:46:18;6.63;;;1.30;;
52866;SDS011;38739;53.324;6.862;2023-04-25T14:48:45;8.73;;;1.75;;
52866;SDS011;38739;53.324;6.862;2023-04-25T14:51:10;8.00;;;1.40;;
52866;SDS011;38739;53.324;6.862;2023-04-25T14:53:36;7.88;;;1.50;;
52866;SDS011;38739;53.324;6.862;2023-04-25T14:56:02;6.38;;;1.50;;
52866;SDS011;38739;53.324;6.862;2023-04-25T14:58:28;7.38;;;1.45;;
52866;SDS011;38739;53.324;6.862;2023-04-25T15:00:54;8.52;;;1.55;;
52866;SDS011;38739;53.324;6.862;2023-04-25T15:03:20;7.03;;;1.50;;